createdAt,value
2017-12-14T00:01:35.561Z,96743.73
2017-12-14T00:04:03.791Z,96747.77
2017-12-14T00:06:32.073Z,96752.83
2017-12-14T00:09:00.323Z,96751.08
2017-12-14T00:11:28.632Z,96755.68
2017-12-14T00:13:56.901Z,96750.00
2017-12-14T00:16:25.158Z,96767.31
2017-12-14T00:18:53.436Z,96783.02
2017-12-14T00:21:21.746Z,96793.04
2017-12-14T00:23:50.043Z,96786.92
2017-12-14T00:26:18.316Z,96801.09
2017-12-14T00:28:46.591Z,96806.97
2017-12-14T00:31:14.846Z,96798.38
2017-12-14T00:33:43.116Z,96785.12
2017-12-14T00:36:11.414Z,96789.47
2017-12-14T00:38:40.227Z,96789.77
2017-12-14T00:41:08.521Z,96811.00
2017-12-14T00:43:36.780Z,96811.30
2017-12-14T00:46:05.076Z,96800.66
2017-12-14T00:48:33.333Z,96806.25
2017-12-14T00:51:01.616Z,96820.74
2017-12-14T00:53:29.916Z,96814.98
2017-12-14T00:55:58.213Z,96824.82
2017-12-14T00:58:26.463Z,96831.61
2017-12-14T01:00:54.760Z,96810.03
2017-12-14T01:03:23.044Z,96827.28
2017-12-14T01:05:51.295Z,96820.63
2017-12-14T01:08:19.615Z,96827.67
2017-12-14T01:10:47.855Z,96832.79
2017-12-14T01:13:16.167Z,96812.42
2017-12-14T01:15:44.438Z,96826.43
2017-12-14T01:18:12.727Z,96822.05
2017-12-14T01:20:40.983Z,96833.95
2017-12-14T01:23:09.280Z,96832.73
2017-12-14T01:25:37.543Z,96840.86
2017-12-14T01:28:05.811Z,96838.91
2017-12-14T01:30:34.077Z,96829.09
2017-12-14T01:33:02.353Z,96819.23
2017-12-14T01:35:30.607Z,96811.06
2017-12-14T01:37:58.881Z,96805.91
2017-12-14T01:40:27.988Z,96806.64
2017-12-14T01:42:56.281Z,96792.39
2017-12-14T01:45:24.546Z,96793.04
2017-12-14T01:47:52.806Z,96798.03
2017-12-14T01:50:21.099Z,96803.03
2017-12-14T01:52:49.378Z,96798.56
2017-12-14T01:55:17.769Z,96800.02
2017-12-14T01:57:46.014Z,96800.84
2017-12-14T02:00:14.413Z,96728.98
2017-12-14T02:02:42.690Z,96803.62
2017-12-14T02:05:10.963Z,96794.76
2017-12-14T02:07:39.227Z,96788.98
2017-12-14T02:10:07.520Z,96782.72
2017-12-14T02:12:35.796Z,96759.31
2017-12-14T02:15:04.076Z,96757.91
2017-12-14T02:17:32.347Z,96772.92
2017-12-14T02:20:00.631Z,96770.64
2017-12-14T02:22:28.888Z,96760.53
2017-12-14T02:24:57.203Z,96751.38
2017-12-14T02:27:25.458Z,96734.97
2017-12-14T02:29:53.711Z,96711.70
2017-12-14T02:32:22.013Z,96715.02
2017-12-14T02:34:50.279Z,96703.54
2017-12-14T02:37:18.587Z,96692.41
2017-12-14T02:39:46.846Z,96708.08
2017-12-14T02:42:15.133Z,96673.75
2017-12-14T02:44:43.388Z,96684.44
2017-12-14T02:47:11.675Z,96679.63
2017-12-14T02:49:39.935Z,96674.36
2017-12-14T02:52:08.228Z,96656.15
2017-12-14T02:54:36.486Z,96644.64
2017-12-14T02:57:04.784Z,96650.62
2017-12-14T02:59:33.038Z,96667.42
2017-12-14T03:02:01.307Z,96647.21
2017-12-14T03:04:29.587Z,96640.34
2017-12-14T03:06:58.166Z,96669.87
2017-12-14T03:09:26.451Z,96654.91
2017-12-14T03:11:54.719Z,96666.30
2017-12-14T03:14:23.005Z,96737.38
2017-12-14T03:16:51.285Z,96679.31
2017-12-14T03:19:19.588Z,96688.45
2017-12-14T03:21:47.850Z,96725.24
2017-12-14T03:24:16.130Z,96726.34
2017-12-14T03:26:44.459Z,96785.39
2017-12-14T03:29:12.758Z,96797.84
2017-12-14T03:31:41.036Z,96814.53
2017-12-14T03:34:09.306Z,96860.02
2017-12-14T03:36:37.588Z,96842.05
2017-12-14T03:39:05.867Z,96838.76
2017-12-14T03:41:34.140Z,96844.40
2017-12-14T03:44:02.426Z,96849.66
2017-12-14T03:46:30.696Z,96856.88
2017-12-14T03:48:58.970Z,96878.78
2017-12-14T03:51:27.253Z,96871.31
2017-12-14T03:53:55.527Z,96885.49
2017-12-14T03:56:23.808Z,96887.56
2017-12-14T03:58:52.120Z,96899.43
2017-12-14T04:01:20.375Z,96917.41
2017-12-14T04:03:48.663Z,96889.14
2017-12-14T04:06:17.459Z,96903.70
2017-12-14T04:08:45.718Z,96925.47
2017-12-14T04:11:13.976Z,96949.78
2017-12-14T04:13:42.239Z,96906.66
2017-12-14T04:16:10.499Z,96939.26
2017-12-14T04:18:38.798Z,96937.69
2017-12-14T04:21:07.063Z,96974.87
2017-12-14T04:23:35.312Z,96957.63
2017-12-14T04:26:03.628Z,96973.81
2017-12-14T04:28:31.891Z,96988.09
2017-12-14T04:31:00.180Z,96982.88
2017-12-14T04:33:28.431Z,96986.77
2017-12-14T04:35:56.740Z,97002.12
2017-12-14T04:38:25.007Z,97012.17
2017-12-14T04:40:53.282Z,97039.98
2017-12-14T04:43:21.572Z,97045.95
2017-12-14T04:45:49.847Z,97045.13
2017-12-14T04:48:18.103Z,97048.41
2017-12-14T04:50:46.388Z,97065.91
2017-12-14T04:53:15.588Z,97075.64
2017-12-14T04:55:43.860Z,97060.98
2017-12-14T04:58:12.159Z,97091.31
2017-12-14T05:00:40.414Z,97053.96
2017-12-14T05:03:08.691Z,97092.05
2017-12-14T05:05:36.966Z,97068.12
2017-12-14T05:08:06.299Z,97067.87
2017-12-14T05:10:34.570Z,97114.95
2017-12-14T05:13:02.847Z,97082.04
2017-12-14T05:15:31.112Z,97082.42
2017-12-14T05:18:00.439Z,97103.19
2017-12-14T05:20:28.715Z,97098.08
2017-12-14T05:22:56.992Z,97100.48
2017-12-14T05:25:25.243Z,97087.70
2017-12-14T05:27:53.494Z,97136.42
2017-12-14T05:30:21.775Z,97109.26
2017-12-14T05:32:50.047Z,97141.55
2017-12-14T05:35:18.331Z,97123.52
2017-12-14T05:37:46.607Z,97138.73
2017-12-14T05:40:14.914Z,97136.19
2017-12-14T05:42:43.155Z,97131.16
2017-12-14T05:45:11.431Z,97147.39
2017-12-14T05:47:40.531Z,97161.30
2017-12-14T05:50:08.859Z,97147.67
2017-12-14T05:52:37.103Z,97150.94
2017-12-14T05:55:05.375Z,97144.06
2017-12-14T05:57:33.647Z,97147.12
2017-12-14T06:00:01.922Z,97153.63
2017-12-14T06:02:30.245Z,97174.31
2017-12-14T06:04:58.767Z,97162.42
2017-12-14T06:07:27.073Z,97179.05
2017-12-14T06:09:55.309Z,97176.22
2017-12-14T06:12:23.680Z,97181.33
2017-12-14T06:14:52.012Z,97186.56
2017-12-14T06:17:20.266Z,97192.41
2017-12-14T06:19:48.532Z,97203.22
2017-12-14T06:22:16.817Z,97198.46
2017-12-14T06:24:45.214Z,97221.41
2017-12-14T06:27:13.536Z,97197.03
2017-12-14T06:29:42.024Z,97241.13
2017-12-14T06:32:10.282Z,97237.34
2017-12-14T06:34:38.619Z,97219.00
2017-12-14T06:37:06.884Z,97242.86
2017-12-14T06:39:36.287Z,97235.45
2017-12-14T06:42:05.115Z,97222.05
2017-12-14T06:44:33.453Z,97264.03
2017-12-14T06:47:01.728Z,97252.85
2017-12-14T06:49:30.047Z,97227.55
2017-12-14T06:51:58.352Z,97271.98
2017-12-14T06:54:26.682Z,97265.55
2017-12-14T06:56:55.032Z,97258.32
2017-12-14T06:59:23.616Z,97296.19
2017-12-14T07:01:51.881Z,97275.83
2017-12-14T07:04:20.169Z,97261.03
2017-12-14T07:06:48.463Z,97286.58
2017-12-14T07:09:16.785Z,97280.73
2017-12-14T07:11:45.116Z,97282.47
2017-12-14T07:14:13.354Z,97288.89
2017-12-14T07:16:41.632Z,97297.97
2017-12-14T07:19:09.916Z,97315.80
2017-12-14T07:21:38.178Z,97324.72
2017-12-14T07:24:06.525Z,97319.74
2017-12-14T07:26:34.814Z,97322.89
2017-12-14T07:29:03.159Z,97305.83
2017-12-14T07:31:31.450Z,97313.23
2017-12-14T07:33:59.891Z,97325.67
2017-12-14T07:36:28.137Z,97306.55
2017-12-14T07:38:56.394Z,97306.44
2017-12-14T07:41:24.731Z,97296.80
2017-12-14T07:44:04.747Z,97309.00
2017-12-14T07:46:35.458Z,97295.48
2017-12-14T07:49:15.364Z,97307.19
2017-12-14T07:51:43.639Z,97296.68
2017-12-14T07:54:12.082Z,97312.30
2017-12-14T07:56:40.407Z,97307.88
2017-12-14T07:59:08.682Z,97325.87
2017-12-14T08:01:37.052Z,97327.01
2017-12-14T08:04:05.355Z,97325.63
2017-12-14T08:06:33.647Z,97329.77
2017-12-14T08:09:01.947Z,97341.97
2017-12-14T08:11:30.243Z,97343.55
2017-12-14T08:13:58.506Z,97338.09
2017-12-14T08:16:26.828Z,97355.17
2017-12-14T08:18:55.160Z,97339.20
2017-12-14T08:21:23.404Z,97354.26
2017-12-14T08:23:51.700Z,97352.44
2017-12-14T08:26:19.955Z,97349.81
2017-12-14T08:28:48.263Z,97344.88
2017-12-14T08:31:16.544Z,97358.59
2017-12-14T08:33:44.833Z,97356.95
2017-12-14T08:36:13.091Z,97344.63
2017-12-14T08:38:41.391Z,97362.52
2017-12-14T08:41:09.850Z,97361.30
2017-12-14T08:43:38.144Z,97357.57
2017-12-14T08:46:06.401Z,97351.23
2017-12-14T08:48:34.680Z,97364.22
2017-12-14T08:51:03.831Z,97370.36
2017-12-14T08:53:32.168Z,97365.92
2017-12-14T08:56:00.430Z,97369.03
2017-12-14T08:58:28.771Z,97382.50
2017-12-14T09:00:57.020Z,97371.98
2017-12-14T09:03:25.279Z,97369.48
2017-12-14T09:05:53.551Z,97359.77
2017-12-14T09:08:21.808Z,97371.78
2017-12-14T09:10:50.084Z,97372.55
2017-12-14T09:13:18.369Z,97362.43
2017-12-14T09:15:46.658Z,97372.30
2017-12-14T09:18:14.911Z,97392.27
2017-12-14T09:20:43.257Z,97382.45
2017-12-14T09:23:11.520Z,97386.06
2017-12-14T09:25:39.832Z,97378.22
2017-12-14T09:28:08.212Z,97373.77
2017-12-14T09:30:36.468Z,97379.42
2017-12-14T09:33:04.875Z,97349.11
2017-12-14T09:35:33.172Z,97380.11
2017-12-14T09:38:01.423Z,97383.55
2017-12-14T09:40:29.716Z,97373.14
2017-12-14T09:42:58.119Z,97385.87
2017-12-14T09:45:26.345Z,97387.56
2017-12-14T09:47:54.620Z,97384.62
2017-12-14T09:50:22.885Z,97368.50
2017-12-14T09:52:51.224Z,97389.36
2017-12-14T09:55:19.519Z,97389.59
2017-12-14T09:57:47.826Z,97400.02
2017-12-14T10:00:16.102Z,97381.90
2017-12-14T10:02:44.387Z,97384.71
2017-12-14T10:05:12.654Z,97384.74
2017-12-14T10:07:40.942Z,97375.97
2017-12-14T10:10:09.215Z,97396.23
2017-12-14T10:12:37.487Z,97377.94
2017-12-14T10:15:05.774Z,97376.50
2017-12-14T10:17:34.067Z,97387.97
2017-12-14T10:20:03.033Z,97366.32
2017-12-14T10:22:31.322Z,97366.20
2017-12-14T10:24:59.604Z,97367.20
2017-12-14T10:27:27.865Z,97357.33
2017-12-14T10:29:56.136Z,97361.42
2017-12-14T10:32:24.411Z,97356.70
2017-12-14T10:34:52.699Z,97342.20
2017-12-14T10:37:21.004Z,97350.98
2017-12-14T10:39:49.342Z,97322.14
2017-12-14T10:42:17.618Z,97337.86
2017-12-14T10:44:45.973Z,97335.91
2017-12-14T10:47:14.236Z,97335.48
2017-12-14T10:49:42.543Z,97343.59
2017-12-14T10:52:10.829Z,97318.52
2017-12-14T10:54:39.142Z,97326.39
2017-12-14T10:57:07.882Z,97327.78
2017-12-14T10:59:36.948Z,97335.95
2017-12-14T11:02:05.891Z,97320.78
2017-12-14T11:04:34.152Z,97325.67
2017-12-14T11:07:02.833Z,97317.66
2017-12-14T11:09:31.264Z,97314.98
2017-12-14T11:11:59.593Z,97311.58
2017-12-14T11:14:27.862Z,97305.24
2017-12-14T11:16:56.147Z,97299.20
2017-12-14T11:19:24.418Z,97298.60
2017-12-14T11:21:52.742Z,97281.08
2017-12-14T11:24:21.011Z,97305.82
2017-12-14T11:26:49.262Z,97288.59
2017-12-14T11:29:17.636Z,97287.09
2017-12-14T11:31:45.912Z,97290.95
2017-12-14T11:34:14.443Z,97270.23
2017-12-14T11:36:42.698Z,97273.00
2017-12-14T11:39:11.037Z,97273.78
2017-12-14T11:41:39.300Z,97252.83
2017-12-14T11:44:07.608Z,97251.00
2017-12-14T11:46:35.993Z,97255.70
2017-12-14T11:49:05.186Z,97256.28
2017-12-14T11:51:33.450Z,97242.42
2017-12-14T11:54:01.922Z,97240.70
2017-12-14T11:56:30.165Z,97236.79
2017-12-14T11:58:59.351Z,97218.90
2017-12-14T12:01:27.750Z,97234.70
2017-12-14T12:03:56.107Z,97220.30
2017-12-14T12:06:24.554Z,97213.81
2017-12-14T12:08:52.948Z,97210.84
2017-12-14T12:11:21.470Z,97195.38
2017-12-14T12:13:49.748Z,97201.20
2017-12-14T12:16:18.147Z,97189.19
2017-12-14T12:18:46.431Z,97186.95
2017-12-14T12:21:14.759Z,97187.09
2017-12-14T12:23:43.042Z,97178.45
2017-12-14T12:26:12.799Z,97171.87
2017-12-14T12:28:42.215Z,97179.66
2017-12-14T12:31:10.486Z,97175.00
2017-12-14T12:33:39.272Z,97173.36
2017-12-14T12:36:07.543Z,97169.97
2017-12-14T12:38:35.837Z,97169.26
2017-12-14T12:41:04.090Z,97169.06
2017-12-14T12:43:32.426Z,97162.53
2017-12-14T12:46:00.793Z,97151.07
2017-12-14T12:48:29.320Z,97154.59
2017-12-14T12:50:57.594Z,97151.50
2017-12-14T12:53:25.958Z,97155.05
2017-12-14T12:55:54.216Z,97154.27
2017-12-14T12:58:22.505Z,97147.84
2017-12-14T13:00:51.455Z,97145.65
2017-12-14T13:03:19.801Z,97145.70
2017-12-14T13:05:48.071Z,97137.72
2017-12-14T13:08:16.342Z,97135.77
2017-12-14T13:10:44.655Z,97128.75
2017-12-14T13:13:12.999Z,97136.23
2017-12-14T13:15:41.338Z,97139.09
2017-12-14T13:18:09.659Z,97139.07
2017-12-14T13:20:37.936Z,97131.62
2017-12-14T13:23:06.213Z,97128.58
2017-12-14T13:25:34.488Z,97127.13
2017-12-14T13:28:02.795Z,97132.86
2017-12-14T13:30:31.050Z,97134.09
2017-12-14T13:32:59.344Z,97121.73
2017-12-14T13:35:27.604Z,97113.05
2017-12-14T13:37:55.881Z,97121.27
2017-12-14T13:40:24.163Z,97126.55
2017-12-14T13:42:52.919Z,97120.44
2017-12-14T13:45:21.254Z,97124.56
2017-12-14T13:47:49.531Z,97127.63
2017-12-14T13:50:17.927Z,97121.38
2017-12-14T13:52:46.167Z,97117.66
2017-12-14T13:55:14.523Z,97114.56
2017-12-14T13:57:42.820Z,97102.58
2017-12-14T14:00:11.076Z,97110.16
2017-12-14T14:02:39.429Z,97094.61
2017-12-14T14:05:07.699Z,97077.09
2017-12-14T14:07:36.032Z,97087.84
2017-12-14T14:10:04.400Z,97094.79
2017-12-14T14:12:32.662Z,97081.98
2017-12-14T14:15:00.944Z,97082.98
2017-12-14T14:17:29.214Z,97073.93
2017-12-14T14:19:57.501Z,97077.34
2017-12-14T14:22:25.766Z,97058.75
2017-12-14T14:24:54.059Z,97061.72
2017-12-14T14:27:22.327Z,97074.86
2017-12-14T14:29:50.813Z,97079.70
2017-12-14T14:32:19.098Z,97081.45
2017-12-14T14:34:47.355Z,97077.59
2017-12-14T14:37:15.669Z,97081.03
2017-12-14T14:39:44.096Z,97082.27
2017-12-14T14:42:12.367Z,97078.38
2017-12-14T14:44:40.662Z,97067.69
2017-12-14T14:47:08.971Z,97062.45
2017-12-14T14:49:37.228Z,97071.12
2017-12-14T14:52:05.692Z,97073.81
2017-12-14T14:54:33.967Z,97082.93
2017-12-14T14:57:02.269Z,97066.75
2017-12-14T14:59:30.564Z,97079.31
2017-12-14T15:01:58.865Z,97080.84
2017-12-14T15:04:27.144Z,97060.98
2017-12-14T15:06:55.440Z,97050.35
2017-12-14T15:09:23.710Z,97040.84
2017-12-14T15:11:52.025Z,97039.54
2017-12-14T15:14:20.274Z,97036.89
2017-12-14T15:16:48.596Z,97040.96
2017-12-14T15:19:16.874Z,97025.78
2017-12-14T15:21:45.170Z,97022.80
2017-12-14T15:24:13.467Z,97027.87
2017-12-14T15:26:41.743Z,97033.52
2017-12-14T15:29:10.126Z,97028.20
2017-12-14T15:31:38.415Z,97031.27
2017-12-14T15:34:06.779Z,97034.97
2017-12-14T15:36:35.067Z,97028.95
2017-12-14T15:39:04.174Z,97024.96
2017-12-14T15:41:32.525Z,97007.77
2017-12-14T15:44:00.782Z,97019.55
2017-12-14T15:46:29.047Z,97012.82
2017-12-14T15:48:58.279Z,97008.92
2017-12-14T15:51:26.539Z,96990.78
2017-12-14T15:53:54.841Z,96992.26
2017-12-14T15:56:23.123Z,97001.22
2017-12-14T15:58:51.484Z,97005.25
2017-12-14T16:01:19.731Z,97004.83
2017-12-14T16:03:48.021Z,97007.19
2017-12-14T16:06:16.307Z,97003.64
2017-12-14T16:08:44.555Z,96995.41
2017-12-14T16:11:12.875Z,96983.14
2017-12-14T16:13:42.031Z,96992.95
2017-12-14T16:16:10.391Z,96996.63
2017-12-14T16:18:38.625Z,96989.38
2017-12-14T16:21:06.935Z,97007.35
2017-12-14T16:23:35.198Z,96982.11
2017-12-14T16:26:04.343Z,96971.30
2017-12-14T16:28:32.888Z,96983.75
2017-12-14T16:31:01.147Z,96971.20
2017-12-14T16:33:29.453Z,96878.31
2017-12-14T16:35:57.721Z,96956.12
2017-12-14T16:38:26.375Z,96955.42
2017-12-14T16:40:54.636Z,96946.19
2017-12-14T16:43:22.926Z,96921.23
2017-12-14T16:45:51.189Z,96929.74
2017-12-14T16:48:19.463Z,96921.41
2017-12-14T16:50:48.527Z,96933.95
2017-12-14T16:53:16.848Z,96930.32
2017-12-14T16:55:45.123Z,96928.13
2017-12-14T16:58:13.468Z,96928.09
2017-12-14T17:00:42.252Z,96931.75
2017-12-14T17:03:10.500Z,96925.80
2017-12-14T17:05:38.913Z,96936.66
2017-12-14T17:08:07.557Z,96938.30
2017-12-14T17:10:35.860Z,96946.63
2017-12-14T17:13:04.188Z,96939.96
2017-12-14T17:15:32.448Z,96937.37
2017-12-14T17:18:00.789Z,96928.36
2017-12-14T17:20:29.095Z,96933.44
2017-12-14T17:22:57.361Z,96928.38
2017-12-14T17:25:27.003Z,96926.84
2017-12-14T17:27:55.233Z,96919.04
2017-12-14T17:30:23.550Z,96904.66
2017-12-14T17:32:51.822Z,96924.22
2017-12-14T17:35:20.198Z,96924.62
2017-12-14T17:37:48.515Z,96916.61
2017-12-14T17:40:16.798Z,96916.16
2017-12-14T17:42:45.123Z,96912.00
2017-12-14T17:45:13.418Z,96908.50
2017-12-14T17:47:41.711Z,96915.25
2017-12-14T17:50:10.099Z,96910.12
2017-12-14T17:52:38.353Z,96904.17
2017-12-14T17:55:06.627Z,96902.84
2017-12-14T17:57:34.935Z,96904.77
2017-12-14T18:00:03.209Z,96892.27
2017-12-14T18:02:31.505Z,96897.90
2017-12-14T18:04:59.806Z,96885.64
2017-12-14T18:07:28.131Z,96890.07
2017-12-14T18:09:56.458Z,96879.39
2017-12-14T18:12:24.742Z,96874.66
2017-12-14T18:14:53.049Z,96853.89
2017-12-14T18:17:21.325Z,96848.77
2017-12-14T18:19:49.574Z,96848.44
2017-12-14T18:22:17.868Z,96839.28
2017-12-14T18:24:46.253Z,96817.35
2017-12-14T18:27:14.511Z,96820.59
2017-12-14T18:29:43.204Z,96823.02
2017-12-14T18:32:11.467Z,96812.48
2017-12-14T18:34:40.485Z,96815.36
2017-12-14T18:37:09.053Z,96812.47
2017-12-14T18:39:37.332Z,96806.03
2017-12-14T18:42:10.648Z,96802.97
2017-12-14T18:44:38.997Z,96806.11
2017-12-14T18:47:07.283Z,96801.73
2017-12-14T18:49:35.556Z,96794.66
2017-12-14T18:52:03.927Z,96795.67
2017-12-14T18:54:32.324Z,96795.02
2017-12-14T18:57:01.625Z,96794.55
2017-12-14T18:59:29.879Z,96786.39
2017-12-14T19:01:58.202Z,96789.63
2017-12-14T19:04:26.464Z,96783.55
2017-12-14T19:06:54.770Z,96782.67
2017-12-14T19:09:23.081Z,96786.33
2017-12-14T19:11:51.393Z,96781.06
2017-12-14T19:14:19.664Z,96770.70
2017-12-14T19:16:47.956Z,96783.81
2017-12-14T19:19:16.240Z,96767.44
2017-12-14T19:21:44.592Z,96754.81
2017-12-14T19:24:12.843Z,96738.98
2017-12-14T19:26:41.132Z,96716.38
2017-12-14T19:29:09.426Z,96711.78
2017-12-14T19:31:37.671Z,96718.83
2017-12-14T19:34:06.063Z,96726.68
2017-12-14T19:36:35.187Z,96716.25
2017-12-14T19:39:04.443Z,96716.28
2017-12-14T19:41:32.732Z,96714.26
2017-12-14T19:44:01.023Z,96709.66
2017-12-14T19:46:29.317Z,96703.84
2017-12-14T19:48:58.584Z,96700.14
2017-12-14T19:51:26.859Z,96704.20
2017-12-14T19:53:55.162Z,96717.91
2017-12-14T19:56:23.401Z,96678.83
2017-12-14T19:58:51.687Z,96706.58
2017-12-14T20:01:19.985Z,96708.17
2017-12-14T20:03:48.239Z,96715.84
2017-12-14T20:06:16.513Z,96715.48
2017-12-14T20:08:44.798Z,96709.02
2017-12-14T20:11:13.369Z,96692.02
2017-12-14T20:13:42.297Z,96687.94
2017-12-14T20:16:10.628Z,96693.78
2017-12-14T20:18:38.918Z,96692.70
2017-12-14T20:21:07.295Z,96703.34
2017-12-14T20:23:36.455Z,96705.03
2017-12-14T20:26:05.282Z,96712.28
2017-12-14T20:28:33.560Z,96715.32
2017-12-14T20:31:01.826Z,96708.44
2017-12-14T20:33:30.124Z,96711.77
2017-12-14T20:35:58.388Z,96722.58
2017-12-14T20:38:26.679Z,96706.20
2017-12-14T20:40:54.941Z,96707.80
2017-12-14T20:43:23.225Z,96699.52
2017-12-14T20:45:51.477Z,96695.84
2017-12-14T20:48:19.783Z,96695.84
2017-12-14T20:50:48.031Z,96692.25
2017-12-14T20:53:16.323Z,96693.25
2017-12-14T20:55:44.580Z,96667.66
2017-12-14T20:58:13.077Z,96684.54
2017-12-14T21:00:41.997Z,96680.58
2017-12-14T21:03:10.264Z,96677.22
2017-12-14T21:05:38.536Z,96691.34
2017-12-14T21:08:06.874Z,96672.16
2017-12-14T21:10:35.175Z,96666.57
2017-12-14T21:13:04.455Z,96664.08
2017-12-14T21:15:32.747Z,96647.19
2017-12-14T21:18:01.019Z,96642.94
2017-12-14T21:20:29.315Z,96628.00
2017-12-14T21:22:57.586Z,96625.95
2017-12-14T21:25:25.868Z,96631.16
2017-12-14T21:27:54.141Z,96625.91
2017-12-14T21:30:22.421Z,96620.05
2017-12-14T21:32:50.701Z,96614.55
2017-12-14T21:35:18.985Z,96624.86
2017-12-14T21:37:48.143Z,96623.24
2017-12-14T21:40:16.431Z,96601.70
2017-12-14T21:42:44.697Z,96600.72
2017-12-14T21:45:12.984Z,96599.14
2017-12-14T21:47:41.279Z,96581.02
2017-12-14T21:50:09.588Z,96568.73
2017-12-14T21:52:37.915Z,96564.40
2017-12-14T21:55:06.213Z,96567.33
2017-12-14T21:57:34.756Z,96553.96
2017-12-14T22:00:03.091Z,96545.91
2017-12-14T22:02:31.380Z,96554.00
2017-12-14T22:04:59.635Z,96564.50
2017-12-14T22:07:27.931Z,96564.01
2017-12-14T22:09:56.189Z,96565.63
2017-12-14T22:12:24.475Z,96582.05
2017-12-14T22:14:52.727Z,96600.23
2017-12-14T22:17:21.069Z,96605.69
2017-12-14T22:19:49.394Z,96608.53
2017-12-14T22:22:17.664Z,96605.56
2017-12-14T22:24:45.981Z,96614.56
2017-12-14T22:27:14.216Z,96612.81
2017-12-14T22:29:42.478Z,96587.61
2017-12-14T22:32:10.747Z,96584.64
2017-12-14T22:34:39.042Z,96569.34
2017-12-14T22:37:07.304Z,96577.77
2017-12-14T22:39:35.618Z,96583.28
2017-12-14T22:42:03.872Z,96582.84
2017-12-14T22:44:32.152Z,96585.16
2017-12-14T22:47:00.415Z,96582.36
2017-12-14T22:49:28.709Z,96585.13
2017-12-14T22:51:56.983Z,96583.46
2017-12-14T22:54:25.260Z,96566.67
2017-12-14T22:56:53.564Z,96564.88
2017-12-14T22:59:21.823Z,96554.42
2017-12-14T23:01:50.119Z,96546.95
2017-12-14T23:04:18.372Z,96535.22
2017-12-14T23:06:46.687Z,96542.38
2017-12-14T23:09:14.955Z,96539.19
2017-12-14T23:11:43.240Z,96543.88
2017-12-14T23:14:11.496Z,96541.40
2017-12-14T23:16:39.775Z,96538.06
2017-12-14T23:19:08.043Z,96530.93
2017-12-14T23:21:37.132Z,96517.30
2017-12-14T23:24:06.222Z,96523.37
2017-12-14T23:26:34.500Z,96522.69
2017-12-14T23:29:02.780Z,96505.78
2017-12-14T23:31:31.018Z,96510.70
2017-12-14T23:33:59.322Z,96511.61
2017-12-14T23:36:27.551Z,96525.77
2017-12-14T23:38:55.888Z,96530.62
2017-12-14T23:41:24.110Z,96537.39
2017-12-14T23:43:52.400Z,96535.64
2017-12-14T23:46:20.656Z,96530.11
2017-12-14T23:48:48.950Z,96532.50
2017-12-14T23:51:17.225Z,96523.77
2017-12-14T23:53:45.469Z,96536.56
2017-12-14T23:56:13.762Z,96537.95
2017-12-14T23:58:42.020Z,96542.30
